KAL054 PHNL-RKSI
Flight info
| Callsign | KAL054 |
|---|---|
| Flight time | N/A |
| Altitude | 34000 |
| Route | KEOLA3 PUPPI DCT CRESP DCT 23N170W 26N180E 29N170E 32N160E 35N150E DCT SEALS OTR13 LAPIL Y811 POROT Y809 LESPO Y806 INUBO Y16 SAPRA Y685 GUKDO GUKDO2E |
| Aircraft | B77W/H-SDE1E2E3FGHIJ2J3J4J5M1RWXY/LB1D1 |
Departure
| Time | N/A |
|---|---|
| Airport | Daniel K. Inouye International Airport (PHNL) |
Arrival
| Time | 2026-05-04 10:32 |
|---|---|
| Airport | Incheon International Airport (RKSI) |
| Time | Latitude | Longitude | Altitude | Speed | Heading |
|---|---|---|---|---|---|
| 2026-05-04 09:34 | 35.90959 | 132.46930 | 36035 ft | 373 kts | 262° |
| 2026-05-04 09:34 | 35.90824 | 132.43727 | 36036 ft | 373 kts | 262° |
| 2026-05-04 09:34 | 35.90554 | 132.37327 | 36037 ft | 373 kts | 262° |
| 2026-05-04 09:35 | 35.90282 | 132.30975 | 36036 ft | 373 kts | 262° |
| 2026-05-04 09:35 | 35.90005 | 132.24585 | 36031 ft | 373 kts | 262° |
| 2026-05-04 09:37 | 35.88864 | 131.99062 | 36034 ft | 373 kts | 262° |
| 2026-05-04 09:38 | 35.88570 | 131.92670 | 36033 ft | 373 kts | 262° |
| 2026-05-04 09:38 | 35.88274 | 131.86325 | 36035 ft | 373 kts | 262° |
| 2026-05-04 09:39 | 35.87973 | 131.79930 | 36041 ft | 373 kts | 262° |
| 2026-05-04 09:39 | 35.87669 | 131.73550 | 36035 ft | 373 kts | 263° |
| 2026-05-04 09:40 | 35.87363 | 131.67190 | 36040 ft | 373 kts | 262° |
| 2026-05-04 09:40 | 35.87052 | 131.60808 | 36041 ft | 373 kts | 263° |
| 2026-05-04 09:42 | 35.85776 | 131.35290 | 36041 ft | 373 kts | 263° |
| 2026-05-04 09:43 | 35.85448 | 131.28892 | 36036 ft | 373 kts | 263° |
| 2026-05-04 09:43 | 35.85119 | 131.22554 | 36037 ft | 373 kts | 263° |
| 2026-05-04 09:44 | 35.84785 | 131.16177 | 36037 ft | 372 kts | 263° |
| 2026-05-04 09:46 | 35.83416 | 130.90698 | 36046 ft | 372 kts | 263° |
| 2026-05-04 09:46 | 35.83068 | 130.84358 | 36048 ft | 372 kts | 263° |
| 2026-05-04 09:47 | 35.82713 | 130.77982 | 36047 ft | 373 kts | 263° |
| 2026-05-04 09:49 | 35.84947 | 130.52307 | 36041 ft | 379 kts | 272° |
| 2026-05-04 09:51 | 35.87784 | 130.29787 | 36038 ft | 379 kts | 272° |
| 2026-05-04 09:51 | 35.88578 | 130.23394 | 36040 ft | 379 kts | 272° |
| 2026-05-04 09:52 | 35.89374 | 130.16956 | 36035 ft | 379 kts | 272° |
| 2026-05-04 09:52 | 35.90163 | 130.10553 | 36040 ft | 379 kts | 272° |
| 2026-05-04 09:53 | 35.90954 | 130.04103 | 36038 ft | 380 kts | 272° |
| 2026-05-04 09:53 | 35.91737 | 129.97683 | 36036 ft | 380 kts | 272° |
| 2026-05-04 09:54 | 35.92523 | 129.91216 | 36033 ft | 380 kts | 272° |
| 2026-05-04 09:54 | 35.93306 | 129.84751 | 36033 ft | 381 kts | 272° |
| 2026-05-04 09:55 | 35.94077 | 129.78319 | 36033 ft | 381 kts | 272° |
| 2026-05-04 09:55 | 35.94847 | 129.71821 | 36031 ft | 381 kts | 272° |
| 2026-05-04 09:56 | 35.95608 | 129.65366 | 36030 ft | 382 kts | 272° |
| 2026-05-04 09:56 | 35.96375 | 129.58850 | 36026 ft | 382 kts | 272° |
| 2026-05-04 09:57 | 35.97232 | 129.52387 | 36023 ft | 387 kts | 278° |
| 2026-05-04 09:57 | 35.99132 | 129.46072 | 36028 ft | 394 kts | 285° |
| 2026-05-04 09:58 | 36.01843 | 129.40120 | 36028 ft | 402 kts | 294° |
| 2026-05-04 09:58 | 36.05112 | 129.34514 | 36028 ft | 405 kts | 295° |
| 2026-05-04 10:00 | 36.18304 | 129.11694 | 36019 ft | 410 kts | 296° |
| 2026-05-04 10:04 | 36.41493 | 128.70995 | 36013 ft | 414 kts | 297° |
| 2026-05-04 10:04 | 36.44822 | 128.65121 | 36005 ft | 416 kts | 297° |
| 2026-05-04 10:05 | 36.48124 | 128.59286 | 35995 ft | 409 kts | 297° |
| 2026-05-04 10:05 | 36.49758 | 128.56401 | 35559 ft | 407 kts | 297° |
| 2026-05-04 10:05 | 36.51378 | 128.53532 | 35097 ft | 403 kts | 297° |
| 2026-05-04 10:05 | 36.52983 | 128.50686 | 34589 ft | 400 kts | 297° |
| 2026-05-04 10:06 | 36.54576 | 128.47857 | 34089 ft | 398 kts | 297° |
| 2026-05-04 10:06 | 36.56160 | 128.45041 | 33505 ft | 395 kts | 297° |
| 2026-05-04 10:06 | 36.57731 | 128.42246 | 32967 ft | 392 kts | 297° |
| 2026-05-04 10:08 | 36.66925 | 128.25983 | 29950 ft | 375 kts | 301° |
| 2026-05-04 10:08 | 36.68442 | 128.23337 | 29395 ft | 373 kts | 301° |
| 2026-05-04 10:08 | 36.69927 | 128.20740 | 28880 ft | 370 kts | 301° |
| 2026-05-04 10:08 | 36.71417 | 128.18131 | 28374 ft | 367 kts | 301° |
| 2026-05-04 10:09 | 36.72894 | 128.15540 | 27879 ft | 365 kts | 301° |
| 2026-05-04 10:09 | 36.74359 | 128.12969 | 27379 ft | 363 kts | 302° |
| 2026-05-04 10:09 | 36.75826 | 128.10395 | 26883 ft | 361 kts | 302° |
| 2026-05-04 10:09 | 36.77276 | 128.07848 | 26431 ft | 359 kts | 302° |
| 2026-05-04 10:10 | 36.78705 | 128.05334 | 25930 ft | 358 kts | 303° |
| 2026-05-04 10:10 | 36.80142 | 128.02805 | 25478 ft | 356 kts | 303° |
| 2026-05-04 10:10 | 36.81577 | 128.00279 | 25004 ft | 355 kts | 303° |
| 2026-05-04 10:10 | 36.83007 | 127.97760 | 24523 ft | 355 kts | 304° |
| 2026-05-04 10:11 | 36.84423 | 127.95264 | 24073 ft | 355 kts | 304° |
| 2026-05-04 10:11 | 36.85845 | 127.92739 | 23593 ft | 355 kts | 303° |
| 2026-05-04 10:11 | 36.87267 | 127.90203 | 23039 ft | 355 kts | 304° |
| 2026-05-04 10:11 | 36.88682 | 127.87676 | 22543 ft | 354 kts | 304° |
| 2026-05-04 10:12 | 36.90091 | 127.85159 | 22064 ft | 352 kts | 304° |
| 2026-05-04 10:12 | 36.91491 | 127.82659 | 21585 ft | 351 kts | 304° |
| 2026-05-04 10:12 | 36.92888 | 127.80161 | 21124 ft | 350 kts | 304° |
| 2026-05-04 10:12 | 36.94285 | 127.77674 | 20650 ft | 349 kts | 304° |
| 2026-05-04 10:13 | 36.95684 | 127.75199 | 20178 ft | 348 kts | 304° |
| 2026-05-04 10:13 | 36.97067 | 127.72751 | 19726 ft | 348 kts | 304° |
| 2026-05-04 10:13 | 36.98465 | 127.70278 | 19244 ft | 347 kts | 305° |
| 2026-05-04 10:13 | 36.99864 | 127.67798 | 18774 ft | 347 kts | 305° |
| 2026-05-04 10:14 | 37.01105 | 127.65247 | 18272 ft | 348 kts | 297° |
| 2026-05-04 10:14 | 37.02053 | 127.62465 | 17837 ft | 346 kts | 291° |
| 2026-05-04 10:16 | 37.05304 | 127.43028 | 15486 ft | 316 kts | 283° |
| 2026-05-04 10:16 | 37.05722 | 127.40332 | 15083 ft | 315 kts | 283° |
| 2026-05-04 10:16 | 37.06140 | 127.37641 | 14697 ft | 314 kts | 283° |
| 2026-05-04 10:16 | 37.06551 | 127.34997 | 14309 ft | 313 kts | 283° |
| 2026-05-04 10:17 | 37.06966 | 127.32319 | 13942 ft | 312 kts | 284° |
| 2026-05-04 10:17 | 37.07375 | 127.29680 | 13549 ft | 310 kts | 283° |
| 2026-05-04 10:19 | 37.10037 | 127.12442 | 11176 ft | 295 kts | 283° |
| 2026-05-04 10:19 | 37.10423 | 127.09923 | 10835 ft | 293 kts | 283° |
| 2026-05-04 10:19 | 37.10928 | 127.06626 | 10484 ft | 286 kts | 283° |
| 2026-05-04 10:19 | 37.11174 | 127.05013 | 10372 ft | 281 kts | 283° |
| 2026-05-04 10:20 | 37.11631 | 127.02669 | 10115 ft | 273 kts | 291° |
| 2026-05-04 10:20 | 37.12343 | 127.00474 | 9855 ft | 269 kts | 295° |
| 2026-05-04 10:20 | 37.13104 | 126.98349 | 9559 ft | 266 kts | 295° |
| 2026-05-04 10:20 | 37.13868 | 126.96221 | 9176 ft | 267 kts | 295° |
| 2026-05-04 10:21 | 37.14611 | 126.94118 | 8831 ft | 266 kts | 295° |
| 2026-05-04 10:21 | 37.15349 | 126.92000 | 8524 ft | 264 kts | 294° |
| 2026-05-04 10:21 | 37.16079 | 126.89885 | 8197 ft | 263 kts | 294° |
| 2026-05-04 10:21 | 37.16799 | 126.87784 | 7885 ft | 262 kts | 294° |
| 2026-05-04 10:22 | 37.18223 | 126.83595 | 7235 ft | 261 kts | 294° |
| 2026-05-04 10:22 | 37.18932 | 126.81504 | 6932 ft | 259 kts | 294° |
| 2026-05-04 10:22 | 37.19636 | 126.79422 | 6636 ft | 258 kts | 294° |
| 2026-05-04 10:23 | 37.20336 | 126.77347 | 6311 ft | 258 kts | 294° |
| 2026-05-04 10:23 | 37.21023 | 126.75311 | 6021 ft | 256 kts | 294° |
| 2026-05-04 10:25 | 37.26373 | 126.63643 | 4777 ft | 208 kts | 321° |
| 2026-05-04 10:25 | 37.27527 | 126.62569 | 4502 ft | 200 kts | 323° |
| 2026-05-04 10:25 | 37.28627 | 126.61581 | 4228 ft | 189 kts | 323° |
| 2026-05-04 10:25 | 37.29676 | 126.60649 | 3973 ft | 179 kts | 323° |
| 2026-05-04 10:26 | 37.30669 | 126.59769 | 3745 ft | 169 kts | 323° |
| 2026-05-04 10:26 | 37.31622 | 126.58924 | 3553 ft | 172 kts | 322° |
| 2026-05-04 10:26 | 37.32592 | 126.58063 | 3304 ft | 168 kts | 322° |
| 2026-05-04 10:26 | 37.33522 | 126.57237 | 3070 ft | 163 kts | 322° |
| 2026-05-04 10:27 | 37.34426 | 126.56436 | 2853 ft | 152 kts | 322° |
| 2026-05-04 10:27 | 37.35261 | 126.55695 | 2655 ft | 142 kts | 322° |
| 2026-05-04 10:27 | 37.36043 | 126.55000 | 2480 ft | 135 kts | 321° |
| 2026-05-04 10:27 | 37.36803 | 126.54323 | 2320 ft | 133 kts | 321° |
| 2026-05-04 10:28 | 37.37552 | 126.53657 | 2132 ft | 133 kts | 321° |
| 2026-05-04 10:28 | 37.38304 | 126.52989 | 1955 ft | 131 kts | 321° |
| 2026-05-04 10:28 | 37.39050 | 126.52326 | 1818 ft | 131 kts | 320° |
| 2026-05-04 10:28 | 37.39797 | 126.51657 | 1616 ft | 132 kts | 320° |
| 2026-05-04 10:29 | 37.40549 | 126.50992 | 1463 ft | 132 kts | 322° |
| 2026-05-04 10:29 | 37.41309 | 126.50315 | 1284 ft | 135 kts | 321° |
| 2026-05-04 10:29 | 37.42077 | 126.49639 | 1088 ft | 134 kts | 320° |
| 2026-05-04 10:29 | 37.42828 | 126.48965 | 838 ft | 134 kts | 320° |
| 2026-05-04 10:30 | 37.43593 | 126.48277 | 589 ft | 135 kts | 320° |
| 2026-05-04 10:30 | 37.44357 | 126.47605 | 387 ft | 134 kts | 320° |
| 2026-05-04 10:30 | 37.45121 | 126.46920 | 214 ft | 135 kts | 321° |
| 2026-05-04 10:30 | 37.45891 | 126.46246 | 41 ft | 132 kts | 320° |
| 2026-05-04 10:31 | 37.46558 | 126.45644 | 37 ft | 101 kts | 325° |
| 2026-05-04 10:31 | 37.47005 | 126.45245 | 37 ft | 56 kts | 324° |
| 2026-05-04 10:32 | 37.47761 | 126.44312 | 37 ft | 12 kts | 324° |
| 2026-05-04 10:33 | 37.47768 | 126.44217 | 36 ft | 13 kts | 238° |
| 2026-05-04 10:33 | 37.47717 | 126.44128 | 38 ft | 13 kts | 234° |
| 2026-05-04 10:33 | 37.47667 | 126.44038 | 38 ft | 13 kts | 235° |
| 2026-05-04 10:33 | 37.47618 | 126.43948 | 38 ft | 13 kts | 234° |
| 2026-05-04 10:34 | 37.47540 | 126.43939 | 38 ft | 13 kts | 148° |
| 2026-05-04 10:34 | 37.47464 | 126.44006 | 38 ft | 14 kts | 145° |
| 2026-05-04 10:34 | 37.47381 | 126.44078 | 38 ft | 15 kts | 146° |
| 2026-05-04 10:34 | 37.47293 | 126.44155 | 38 ft | 16 kts | 144° |
| 2026-05-04 10:35 | 37.47201 | 126.44238 | 38 ft | 17 kts | 144° |
| 2026-05-04 10:35 | 37.47104 | 126.44325 | 37 ft | 18 kts | 145° |
| 2026-05-04 10:35 | 37.47002 | 126.44415 | 37 ft | 18 kts | 145° |
| 2026-05-04 10:35 | 37.46899 | 126.44509 | 37 ft | 18 kts | 143° |
| 2026-05-04 10:36 | 37.46795 | 126.44600 | 37 ft | 16 kts | 145° |
| 2026-05-04 10:36 | 37.46722 | 126.44618 | 37 ft | 12 kts | 214° |
| 2026-05-04 10:36 | 37.46669 | 126.44541 | 37 ft | 12 kts | 234° |
| 2026-05-04 10:36 | 37.46626 | 126.44454 | 37 ft | 12 kts | 243° |
| 2026-05-04 10:37 | 37.46583 | 126.44368 | 37 ft | 12 kts | 235° |
| 2026-05-04 10:37 | 37.46537 | 126.44285 | 38 ft | 12 kts | 234° |
| 2026-05-04 10:37 | 37.46489 | 126.44202 | 38 ft | 12 kts | 234° |
| 2026-05-04 10:37 | 37.46442 | 126.44119 | 38 ft | 12 kts | 235° |
| 2026-05-04 10:39 | 37.46276 | 126.43624 | 38 ft | 12 kts | 324° |
| 2026-05-04 10:39 | 37.46334 | 126.43573 | 38 ft | 8 kts | 324° |
| 2026-05-04 10:39 | 37.46338 | 126.43520 | 38 ft | 7 kts | 236° |
| 2026-05-04 10:40 | 37.46317 | 126.43481 | 38 ft | 4 kts | 236° |
| 2026-05-04 10:40 | 37.46305 | 126.43459 | 38 ft | 3 kts | 236° |
| 2026-05-04 10:40 | 37.46303 | 126.43455 | 38 ft | 0 kts | 236° |